createdAt,value
2019-01-12T00:00:01.758Z,41.20
2019-01-12T00:02:54.721Z,42.63
2019-01-12T00:05:28.262Z,49.17
2019-01-12T00:08:01.527Z,55.03
2019-01-12T00:10:37.454Z,51.47
2019-01-12T00:13:12.622Z,42.77
2019-01-12T00:15:45.731Z,51.50
2019-01-12T00:18:19.434Z,55.37
2019-01-12T00:20:55.956Z,67.70
2019-01-12T00:23:29.170Z,41.37
2019-01-12T00:26:01.948Z,49.53
2019-01-12T00:28:47.986Z,47.47
2019-01-12T00:31:37.274Z,47.67
2019-01-12T00:34:28.896Z,45.10
2019-01-12T00:37:19.564Z,41.97
2019-01-12T00:40:08.768Z,41.73
2019-01-12T00:42:57.992Z,36.13
2019-01-12T00:45:47.226Z,29.87
2019-01-12T00:48:37.293Z,51.10
2019-01-12T00:51:27.069Z,31.07
2019-01-12T00:54:21.168Z,37.37
2019-01-12T00:57:11.603Z,39.67
2019-01-12T01:00:01.212Z,36.03
2019-01-12T01:02:51.640Z,36.67
2019-01-12T01:05:41.737Z,37.57
2019-01-12T01:08:31.336Z,28.10
2019-01-12T01:11:20.296Z,35.47
2019-01-12T01:14:09.778Z,38.43
2019-01-12T01:16:59.010Z,28.47
2019-01-12T01:19:48.098Z,36.13
2019-01-12T01:22:37.306Z,31.33
2019-01-12T01:25:27.642Z,37.20
2019-01-12T01:28:16.919Z,39.70
2019-01-12T01:31:07.028Z,36.03
2019-01-12T01:33:56.941Z,30.60
2019-01-12T01:36:47.203Z,31.20
2019-01-12T01:39:37.489Z,41.57
2019-01-12T01:42:27.170Z,45.10
2019-01-12T01:45:20.987Z,44.10
2019-01-12T01:48:10.395Z,29.93
2019-01-12T01:50:59.788Z,40.83
2019-01-12T01:53:49.039Z,23.07
2019-01-12T01:56:38.688Z,31.17
2019-01-12T01:59:28.183Z,24.23
2019-01-12T02:02:21.950Z,27.07
2019-01-12T02:05:11.163Z,22.30
2019-01-12T02:08:03.651Z,30.83
2019-01-12T02:10:53.695Z,27.10
2019-01-12T02:13:42.790Z,23.30
2019-01-12T02:16:32.405Z,25.20
2019-01-12T02:19:23.359Z,29.67
2019-01-12T02:22:13.196Z,25.63
2019-01-12T02:25:02.838Z,22.50
2019-01-12T02:27:52.527Z,29.77
2019-01-12T02:30:41.324Z,22.30
2019-01-12T02:33:30.953Z,22.10
2019-01-12T02:36:20.423Z,14.53
2019-01-12T02:39:09.970Z,16.77
2019-01-12T02:41:59.378Z,15.57
2019-01-12T02:44:48.371Z,19.37
2019-01-12T02:47:37.785Z,13.60
2019-01-12T02:50:27.711Z,13.93
2019-01-12T02:53:17.038Z,14.23
2019-01-12T02:56:09.002Z,9.37
2019-01-12T02:58:58.337Z,7.37
2019-01-12T03:01:47.502Z,8.67
2019-01-12T03:04:37.189Z,12.20
2019-01-12T03:07:26.150Z,8.13
2019-01-12T03:10:16.719Z,13.07
2019-01-12T03:13:07.154Z,7.93
2019-01-12T03:15:56.305Z,11.90
2019-01-12T03:18:45.600Z,8.63
2019-01-12T03:21:36.222Z,6.17
2019-01-12T03:24:25.517Z,6.47
2019-01-12T03:27:15.069Z,8.30
2019-01-12T03:30:13.403Z,8.83
2019-01-12T03:33:03.125Z,7.13
2019-01-12T03:35:52.414Z,6.80
2019-01-12T03:38:41.809Z,6.60
2019-01-12T03:41:30.522Z,8.50
2019-01-12T03:44:20.256Z,11.77
2019-01-12T03:47:09.979Z,9.70
2019-01-12T03:49:59.666Z,8.03
2019-01-12T03:52:48.902Z,8.67
2019-01-12T03:55:40.291Z,9.37
2019-01-12T03:58:30.018Z,12.97
2019-01-12T04:01:19.401Z,6.87
2019-01-12T04:03:56.581Z,7.10
2019-01-12T04:06:38.803Z,5.10
2019-01-12T04:09:12.033Z,11.93
2019-01-12T04:11:54.644Z,7.93
2019-01-12T04:14:36.848Z,9.07
2019-01-12T04:17:10.159Z,6.93
2019-01-12T04:19:45.482Z,7.63
2019-01-12T04:22:18.741Z,7.03
2019-01-12T04:25:04.633Z,9.87
2019-01-12T04:27:38.222Z,5.20
2019-01-12T04:30:14.165Z,8.80
2019-01-12T04:33:02.108Z,11.00
2019-01-12T04:35:35.275Z,9.57
2019-01-12T04:38:08.573Z,8.20
2019-01-12T04:40:50.586Z,9.80
2019-01-12T04:43:26.189Z,7.23
2019-01-12T04:45:59.687Z,7.23
2019-01-12T04:48:33.185Z,6.07
2019-01-12T04:51:06.785Z,11.57
2019-01-12T04:53:45.452Z,8.57
2019-01-12T04:56:27.739Z,7.13
2019-01-12T04:59:01.089Z,10.37
2019-01-12T05:01:37.927Z,5.80
2019-01-12T05:04:11.475Z,8.67
2019-01-12T05:06:44.667Z,6.93
2019-01-12T05:09:26.936Z,9.73
2019-01-12T05:12:10.349Z,10.50
2019-01-12T05:14:43.504Z,5.93
2019-01-12T05:17:16.813Z,9.33
2019-01-12T05:19:58.763Z,6.23
2019-01-12T05:22:32.394Z,6.47
2019-01-12T05:25:06.571Z,5.87
2019-01-12T05:27:48.903Z,8.07
2019-01-12T05:30:24.463Z,8.30
2019-01-12T05:33:07.825Z,6.33
2019-01-12T05:35:40.970Z,7.73
2019-01-12T05:38:30.296Z,8.20
2019-01-12T05:41:03.470Z,9.43
2019-01-12T05:43:48.156Z,6.93
2019-01-12T05:46:21.306Z,4.60
2019-01-12T05:48:55.231Z,4.40
2019-01-12T05:51:28.728Z,6.60
2019-01-12T05:54:02.433Z,6.70
2019-01-12T05:56:39.719Z,8.63
2019-01-12T05:59:13.251Z,3.37
2019-01-12T06:01:51.126Z,14.10
2019-01-12T06:04:32.134Z,9.77
2019-01-12T06:07:14.535Z,7.27
2019-01-12T06:09:57.444Z,12.40
2019-01-12T06:12:43.217Z,11.23
2019-01-12T06:15:17.253Z,4.83
2019-01-12T06:18:02.980Z,11.60
2019-01-12T06:20:41.210Z,12.23
2019-01-12T06:23:14.783Z,6.67
2019-01-12T06:25:48.193Z,15.70
2019-01-12T06:28:21.808Z,14.00
2019-01-12T06:30:55.361Z,12.17
2019-01-12T06:33:29.224Z,15.67
2019-01-12T06:36:03.952Z,11.60
2019-01-12T06:38:37.514Z,11.10
2019-01-12T06:41:11.412Z,10.63
2019-01-12T06:43:44.693Z,19.23
2019-01-12T06:46:18.450Z,12.87
2019-01-12T06:48:51.830Z,13.13
2019-01-12T06:51:25.203Z,11.10
2019-01-12T06:53:58.726Z,15.50
2019-01-12T06:56:40.609Z,9.60
2019-01-12T06:59:14.361Z,10.87
2019-01-12T07:01:47.733Z,13.43
2019-01-12T07:04:19.161Z,9.80
2019-01-12T07:06:53.769Z,9.30
2019-01-12T07:09:26.974Z,9.73
2019-01-12T07:12:00.252Z,9.10
2019-01-12T07:14:33.767Z,9.23
2019-01-12T07:17:07.381Z,7.30
2019-01-12T07:19:43.162Z,8.90
2019-01-12T07:22:17.519Z,6.50
2019-01-12T07:25:00.418Z,7.80
2019-01-12T07:27:34.017Z,9.80
2019-01-12T07:30:10.269Z,9.53
2019-01-12T07:32:43.456Z,4.93
2019-01-12T07:35:17.640Z,5.37
2019-01-12T07:38:00.123Z,7.97
2019-01-12T07:40:35.144Z,8.33
2019-01-12T07:43:08.408Z,4.13
2019-01-12T07:45:43.063Z,4.87
2019-01-12T07:48:24.982Z,8.43
2019-01-12T07:50:58.679Z,9.67
2019-01-12T07:53:32.156Z,7.97
2019-01-12T07:56:07.528Z,7.03
2019-01-12T07:58:40.789Z,6.13
2019-01-12T08:01:15.247Z,12.23
2019-01-12T08:03:46.932Z,3.20
2019-01-12T08:06:20.176Z,5.43
2019-01-12T08:08:53.489Z,3.97
2019-01-12T08:11:34.354Z,4.47
2019-01-12T08:14:21.852Z,5.17
2019-01-12T08:16:56.166Z,5.80
2019-01-12T08:19:28.326Z,6.10
2019-01-12T08:22:12.336Z,7.13
2019-01-12T08:24:50.475Z,9.73
2019-01-12T08:28:04.306Z,8.30
2019-01-12T08:30:52.958Z,6.20
2019-01-12T08:33:50.280Z,6.40
2019-01-12T08:36:30.322Z,5.83
2019-01-12T08:39:10.695Z,6.57
2019-01-12T08:41:49.571Z,5.47
2019-01-12T08:44:37.921Z,9.07
2019-01-12T08:47:25.840Z,4.33
2019-01-12T08:50:18.372Z,7.20
2019-01-12T08:53:04.666Z,8.20
2019-01-12T08:55:37.887Z,5.10
2019-01-12T08:58:20.672Z,6.63
2019-01-12T09:01:03.098Z,6.97
2019-01-12T09:03:36.386Z,6.87
2019-01-12T09:06:11.898Z,7.57
2019-01-12T09:08:46.154Z,6.00
2019-01-12T09:11:19.417Z,5.77
2019-01-12T09:14:02.340Z,6.07
2019-01-12T09:16:44.448Z,5.97
2019-01-12T09:19:18.025Z,6.97
2019-01-12T09:21:51.674Z,10.93
2019-01-12T09:24:25.320Z,8.67
2019-01-12T09:26:59.106Z,6.90
2019-01-12T09:29:36.663Z,11.50
2019-01-12T09:32:10.286Z,6.63
2019-01-12T09:34:44.559Z,9.67
2019-01-12T09:37:18.844Z,6.23
2019-01-12T09:39:52.260Z,6.33
2019-01-12T09:42:36.681Z,10.67
2019-01-12T09:45:20.959Z,10.43
2019-01-12T09:48:03.384Z,10.97
2019-01-12T09:50:36.960Z,11.50
2019-01-12T09:53:12.044Z,8.87
2019-01-12T09:55:45.375Z,11.63
2019-01-12T09:58:20.564Z,14.03
2019-01-12T10:00:53.926Z,15.10
2019-01-12T10:03:27.330Z,12.13
2019-01-12T10:06:01.229Z,15.00
2019-01-12T10:08:35.043Z,13.30
2019-01-12T10:11:08.591Z,15.50
2019-01-12T10:13:41.484Z,14.57
2019-01-12T10:16:24.040Z,18.63
2019-01-12T10:18:57.829Z,17.37
2019-01-12T10:21:40.251Z,16.13
2019-01-12T10:24:13.515Z,18.00
2019-01-12T10:26:46.843Z,19.33
2019-01-12T10:29:20.593Z,17.70
2019-01-12T10:31:54.963Z,21.17
2019-01-12T10:34:29.821Z,21.03
2019-01-12T10:37:05.834Z,19.67
2019-01-12T10:39:48.163Z,20.03
2019-01-12T10:42:21.500Z,24.87
2019-01-12T10:44:55.000Z,21.13
2019-01-12T10:47:28.333Z,19.93
2019-01-12T10:50:01.804Z,23.63
2019-01-12T10:52:35.348Z,25.33
2019-01-12T10:55:08.727Z,25.77
2019-01-12T10:57:41.744Z,22.40
2019-01-12T11:00:19.381Z,26.53
2019-01-12T11:02:52.707Z,27.37
2019-01-12T11:05:34.744Z,26.53
2019-01-12T11:08:08.294Z,29.33
2019-01-12T11:10:41.352Z,23.87
2019-01-12T11:13:15.608Z,25.50
2019-01-12T11:15:49.571Z,32.40
2019-01-12T11:18:31.768Z,29.53
2019-01-12T11:21:05.286Z,30.43
2019-01-12T11:23:38.584Z,29.07
2019-01-12T11:26:11.878Z,30.00
2019-01-12T11:28:45.426Z,35.93
2019-01-12T11:31:33.803Z,29.20
2019-01-12T11:34:06.988Z,28.83
2019-01-12T11:36:40.305Z,31.87
2019-01-12T11:39:13.501Z,34.27
2019-01-12T11:41:57.876Z,32.63
2019-01-12T11:44:32.102Z,30.20
2019-01-12T11:47:14.273Z,33.40
2019-01-12T11:49:47.959Z,35.33
2019-01-12T11:52:21.266Z,28.47
2019-01-12T11:54:54.676Z,33.77
2019-01-12T11:57:27.958Z,24.90
2019-01-12T12:00:34.161Z,26.53
2019-01-12T12:03:06.971Z,26.93
2019-01-12T12:05:40.170Z,25.23
2019-01-12T12:08:22.742Z,26.03
2019-01-12T12:11:05.179Z,22.63
2019-01-12T12:13:38.479Z,25.10
2019-01-12T12:16:11.265Z,25.90
2019-01-12T12:18:53.789Z,27.07
2019-01-12T12:21:27.705Z,22.67
2019-01-12T12:24:10.221Z,22.30
2019-01-12T12:26:44.225Z,24.67
2019-01-12T12:29:27.288Z,25.00
2019-01-12T12:32:00.628Z,23.40
2019-01-12T12:34:43.064Z,22.70
2019-01-12T12:37:16.861Z,23.73
2019-01-12T12:40:01.637Z,22.00
2019-01-12T12:42:35.097Z,23.57
2019-01-12T12:45:10.551Z,21.20
2019-01-12T12:47:43.833Z,21.20
2019-01-12T12:50:18.504Z,21.10
2019-01-12T12:52:51.701Z,19.67
2019-01-12T12:55:25.069Z,19.23
2019-01-12T12:57:59.140Z,17.90
2019-01-12T13:00:41.375Z,18.00
2019-01-12T13:03:14.747Z,16.73
2019-01-12T13:05:48.746Z,19.70
2019-01-12T13:08:23.000Z,18.93
2019-01-12T13:11:05.090Z,16.13
2019-01-12T13:13:38.681Z,16.93
2019-01-12T13:16:11.460Z,15.70
2019-01-12T13:18:45.139Z,16.17
2019-01-12T13:21:18.319Z,15.43
2019-01-12T13:23:53.228Z,14.33
2019-01-12T13:26:26.846Z,14.97
2019-01-12T13:29:00.271Z,15.00
2019-01-12T13:31:34.116Z,16.20
2019-01-12T13:34:07.628Z,13.60
2019-01-12T13:36:41.457Z,10.83
2019-01-12T13:39:23.664Z,11.93
2019-01-12T13:41:56.919Z,12.77
2019-01-12T13:44:31.174Z,10.23
2019-01-12T13:47:04.459Z,10.13
2019-01-12T13:49:37.658Z,9.20
2019-01-12T13:52:11.272Z,9.67
2019-01-12T13:54:44.880Z,12.63
2019-01-12T13:57:16.724Z,9.97
2019-01-12T13:59:48.670Z,9.07
2019-01-12T14:02:21.682Z,9.43
2019-01-12T14:04:55.299Z,9.10
2019-01-12T14:07:37.752Z,10.77
2019-01-12T14:10:13.010Z,7.10
2019-01-12T14:12:46.689Z,8.77
2019-01-12T14:15:20.400Z,9.30
2019-01-12T14:17:54.115Z,8.73
2019-01-12T14:20:41.389Z,5.40
2019-01-12T14:23:15.191Z,8.30
2019-01-12T14:25:58.875Z,5.03
2019-01-12T14:28:32.270Z,5.90
2019-01-12T14:31:04.184Z,6.43
2019-01-12T14:33:38.152Z,8.60
2019-01-12T14:36:12.179Z,4.70
2019-01-12T14:38:54.441Z,4.80
2019-01-12T14:41:27.938Z,8.67
2019-01-12T14:44:01.386Z,8.07
2019-01-12T14:46:35.365Z,7.87
2019-01-12T14:49:08.985Z,10.60
2019-01-12T14:51:42.253Z,9.90
2019-01-12T14:54:15.753Z,6.93
2019-01-12T14:56:49.085Z,8.13
2019-01-12T14:59:22.776Z,11.50
2019-01-12T15:01:56.315Z,12.70
2019-01-12T15:04:30.446Z,19.87
2019-01-12T15:07:04.409Z,13.27
2019-01-12T15:09:53.672Z,11.10
2019-01-12T15:12:35.850Z,21.47
2019-01-12T15:15:08.594Z,13.93
2019-01-12T15:17:41.617Z,16.53
2019-01-12T15:20:31.623Z,12.13
2019-01-12T15:23:03.613Z,21.67
2019-01-12T15:25:37.514Z,19.33
2019-01-12T15:28:11.046Z,25.03
2019-01-12T15:30:44.711Z,19.80
2019-01-12T15:33:16.593Z,20.93
2019-01-12T15:35:51.592Z,21.77
2019-01-12T15:38:25.342Z,14.87
2019-01-12T15:40:58.932Z,21.70
2019-01-12T15:43:33.893Z,20.07
2019-01-12T15:46:08.258Z,13.70
2019-01-12T15:48:42.032Z,22.30
2019-01-12T15:51:26.295Z,19.60
2019-01-12T15:54:01.294Z,13.90
2019-01-12T15:56:36.034Z,13.70
2019-01-12T15:59:10.555Z,15.47
2019-01-12T16:01:53.245Z,16.97
2019-01-12T16:04:36.120Z,17.27
2019-01-12T16:07:10.730Z,17.50
2019-01-12T16:09:44.625Z,12.83
2019-01-12T16:12:18.471Z,34.53
2019-01-12T16:14:52.318Z,15.70
2019-01-12T16:17:25.406Z,20.50
2019-01-12T16:20:00.036Z,20.50
2019-01-12T16:22:33.883Z,21.30
2019-01-12T16:25:08.083Z,20.10
2019-01-12T16:27:41.891Z,22.57
2019-01-12T16:30:25.445Z,23.70
2019-01-12T16:33:00.191Z,16.93
2019-01-12T16:35:49.058Z,19.90
2019-01-12T16:38:32.870Z,18.97
2019-01-12T16:41:08.044Z,19.13
2019-01-12T16:43:43.426Z,25.57
2019-01-12T16:46:20.347Z,20.50
2019-01-12T16:48:55.609Z,19.30
2019-01-12T16:51:29.926Z,17.70
2019-01-12T16:54:03.250Z,20.30
2019-01-12T16:56:45.336Z,18.57
2019-01-12T16:59:18.630Z,15.00
2019-01-12T17:01:52.471Z,19.93
2019-01-12T17:04:26.715Z,19.90
2019-01-12T17:06:59.449Z,16.30
2019-01-12T17:09:32.807Z,23.87
2019-01-12T17:12:06.044Z,18.90
2019-01-12T17:14:48.417Z,17.20
2019-01-12T17:17:22.015Z,25.37
2019-01-12T17:20:19.352Z,20.37
2019-01-12T17:22:53.536Z,26.23
2019-01-12T17:25:37.774Z,23.53
2019-01-12T17:28:11.561Z,19.93
2019-01-12T17:30:45.732Z,28.43
2019-01-12T17:33:31.573Z,27.20
2019-01-12T17:36:04.691Z,16.63
2019-01-12T17:38:38.250Z,25.70
2019-01-12T17:41:12.260Z,20.97
2019-01-12T17:43:46.129Z,26.37
2019-01-12T17:46:20.243Z,24.30
2019-01-12T17:48:55.091Z,19.40
2019-01-12T17:51:28.780Z,16.57
2019-01-12T17:54:02.700Z,23.27
2019-01-12T17:56:37.312Z,28.80
2019-01-12T17:59:16.093Z,21.57
2019-01-12T18:01:50.396Z,19.40
2019-01-12T18:04:24.549Z,23.03
2019-01-12T18:06:59.585Z,17.63
2019-01-12T18:09:34.379Z,16.43
2019-01-12T18:12:19.206Z,20.07
2019-01-12T18:14:53.458Z,15.10
2019-01-12T18:17:27.706Z,18.73
2019-01-12T18:20:13.911Z,24.90
2019-01-12T18:22:47.442Z,19.60
2019-01-12T18:25:22.024Z,21.87
2019-01-12T18:27:57.052Z,22.80
2019-01-12T18:30:30.862Z,34.90
2019-01-12T18:33:03.552Z,22.93
2019-01-12T18:35:37.689Z,22.70
2019-01-12T18:38:11.152Z,30.27
2019-01-12T18:40:44.216Z,28.23
2019-01-12T18:43:16.392Z,23.00
2019-01-12T18:45:49.707Z,28.90
2019-01-12T18:48:22.834Z,20.90
2019-01-12T18:51:04.808Z,26.07
2019-01-12T18:53:37.994Z,21.73
2019-01-12T18:56:12.553Z,28.47
2019-01-12T18:58:58.994Z,20.13
2019-01-12T19:01:31.234Z,27.23
2019-01-12T19:04:04.815Z,24.93
2019-01-12T19:06:38.236Z,22.47
2019-01-12T19:09:11.442Z,28.23
2019-01-12T19:11:53.959Z,19.93
2019-01-12T19:14:27.590Z,22.73
2019-01-12T19:17:01.773Z,20.20
2019-01-12T19:19:45.043Z,28.23
2019-01-12T19:22:18.579Z,24.70
2019-01-12T19:24:51.798Z,21.43
2019-01-12T19:27:33.904Z,21.40
2019-01-12T19:30:10.412Z,20.60
2019-01-12T19:32:44.091Z,27.87
2019-01-12T19:35:17.455Z,25.83
2019-01-12T19:37:50.633Z,21.07
2019-01-12T19:40:24.103Z,14.80
2019-01-12T19:43:12.457Z,18.90
2019-01-12T19:45:45.612Z,20.87
2019-01-12T19:48:19.228Z,20.37
2019-01-12T19:50:52.477Z,23.50
2019-01-12T19:53:34.362Z,17.20
2019-01-12T19:56:07.826Z,19.60
2019-01-12T19:58:41.023Z,25.80
2019-01-12T20:01:14.613Z,17.57
2019-01-12T20:03:47.920Z,22.13
2019-01-12T20:06:32.440Z,14.13
2019-01-12T20:09:08.826Z,17.30
2019-01-12T20:11:42.035Z,18.27
2019-01-12T20:14:31.961Z,19.10
2019-01-12T20:17:05.262Z,21.57
2019-01-12T20:19:38.566Z,15.40
2019-01-12T20:22:11.782Z,17.53
2019-01-12T20:24:56.413Z,17.67
2019-01-12T20:27:33.465Z,14.23
2019-01-12T20:30:06.695Z,13.80
2019-01-12T20:33:15.688Z,18.07
2019-01-12T20:36:39.265Z,13.33
2019-01-12T20:40:23.144Z,15.27
2019-01-12T20:43:19.402Z,18.50
2019-01-12T20:46:55.495Z,15.10
2019-01-12T20:49:53.946Z,13.50
2019-01-12T20:53:13.278Z,9.60
2019-01-12T20:56:27.661Z,18.63
2019-01-12T20:59:31.335Z,13.53
2019-01-12T21:02:35.683Z,15.40
2019-01-12T21:05:34.598Z,12.87
2019-01-12T21:08:30.021Z,10.17
2019-01-12T21:11:44.071Z,7.83
2019-01-12T21:14:43.477Z,8.37
2019-01-12T21:17:18.558Z,10.57
2019-01-12T21:19:51.836Z,8.23
2019-01-12T21:22:24.950Z,11.43
2019-01-12T21:25:09.725Z,6.87
2019-01-12T21:27:55.033Z,9.33
2019-01-12T21:30:28.496Z,6.37
2019-01-12T21:33:01.842Z,9.37
2019-01-12T21:35:35.340Z,9.33
2019-01-12T21:38:08.829Z,9.57
2019-01-12T21:40:42.783Z,10.57
2019-01-12T21:43:16.720Z,6.57
2019-01-12T21:45:50.298Z,10.67
2019-01-12T21:48:22.013Z,13.70
2019-01-12T21:50:55.710Z,14.03
2019-01-12T21:53:28.911Z,8.13
2019-01-12T21:56:01.874Z,8.23
2019-01-12T21:58:52.610Z,14.40
2019-01-12T22:01:25.844Z,12.13
2019-01-12T22:03:58.245Z,12.63
2019-01-12T22:06:31.490Z,18.60
2019-01-12T22:09:08.575Z,12.37
2019-01-12T22:11:42.377Z,22.70
2019-01-12T22:14:15.921Z,20.53
2019-01-12T22:16:49.462Z,21.37
2019-01-12T22:19:20.890Z,24.20
2019-01-12T22:21:54.191Z,25.40
2019-01-12T22:24:36.471Z,20.87
2019-01-12T22:27:09.868Z,26.10
2019-01-12T22:29:49.896Z,24.57
2019-01-12T22:32:18.470Z,19.80
2019-01-12T22:34:51.582Z,23.60
2019-01-12T22:37:25.228Z,21.27
2019-01-12T22:39:58.893Z,25.27
2019-01-12T22:42:32.932Z,18.83
2019-01-12T22:45:07.308Z,24.67
2019-01-12T22:47:51.891Z,18.37
2019-01-12T22:50:25.196Z,29.97
2019-01-12T22:52:58.397Z,21.80
2019-01-12T22:55:31.784Z,15.30
2019-01-12T22:58:14.186Z,23.93
2019-01-12T23:01:15.532Z,21.37
2019-01-12T23:03:51.578Z,28.83
2019-01-12T23:06:24.776Z,20.77
2019-01-12T23:08:57.167Z,23.23
2019-01-12T23:11:30.549Z,24.73
2019-01-12T23:14:04.157Z,17.27
2019-01-12T23:16:37.347Z,24.00
2019-01-12T23:19:23.889Z,24.37
2019-01-12T23:21:57.413Z,24.67
2019-01-12T23:24:30.593Z,21.97
2019-01-12T23:27:04.195Z,22.47
2019-01-12T23:29:37.781Z,22.47
2019-01-12T23:32:11.088Z,23.00
2019-01-12T23:34:54.736Z,24.00
2019-01-12T23:37:37.220Z,16.20
2019-01-12T23:40:11.053Z,22.03
2019-01-12T23:42:55.777Z,27.70
2019-01-12T23:45:29.744Z,21.57
2019-01-12T23:48:12.343Z,16.43
2019-01-12T23:50:45.790Z,22.60
2019-01-12T23:53:19.021Z,16.27
2019-01-12T23:55:52.353Z,16.67
2019-01-12T23:58:25.631Z,22.37
